• Join FlightAware (Why Join?)
  • Login
  • US Flag 
11:24PM EDT


 

Airport Tracker/Info


-or-


 

Live Flight TrackerFlight Track Log ✈ N675MC ✈ 18-Sep-2013 ✈ KAGS - KATL

Flight Track Log - Related Links

Times and Time Zones

All times are in EDT time to prevent confusion due to time zone crossing. See the N675MC flight status page for this flight to view local times or setup timezone preferences in your user account.

Time Position Orientation Groundspeed Altitude Reporting Facility
EDT Latitude Longitude Course Direction KTS MPH feet Rate Location/Type
07:10AM 33.4108 -82.1847 245° Southwest 262 302 6,800  Level Atlanta Center
07:11AM 33.4160 -82.3589 239° Southwest  Level Estimated
07:11AM 33.4017 -82.2769 263° West 269 310 9,800  Level Atlanta Center
07:12AM 33.4274 -82.4576 242° Southwest  Level Estimated
07:12AM 33.3825 -82.3994 259° West 305 351 11,000  Level Atlanta Center
07:13AM 33.5028 -82.4996 335° Northwest  Level FlightAware Approximate
07:13AM 33.3694 -82.5239 263° West 360 414 13,300  Level Atlanta Center
07:14AM 33.5202 -82.5508 245° Southwest  Level FlightAware Approximate
07:14AM 33.3586 -82.6511 264° West 391 450 15,300  Level Atlanta Center
07:15AM 33.4854 -82.6414 245° Southwest  Level FlightAware Approximate
07:15AM 33.3453 -82.7881 263° West 404 465 17,300  Level Atlanta Center
07:16AM 33.3361 -82.9225 265° West 411 473 19,000 1,740 Climbing Atlanta Center
07:17AM 33.3206 -83.0594 262° West 417 480 20,800 1,200 Climbing Atlanta Center
07:18AM 33.3197 -83.2036 270° West 425 489 21,400 -360 Climbing Atlanta Center
07:19AM 33.3206 -83.3353 270° West 436 502 20,100 -1,500 Descending Atlanta Center
07:20AM 33.3253 -83.4769 272° West 436 502 18,400 -1,980 Descending Atlanta Center
07:21AM 33.3300 -83.6161 272° West 436 502 16,200 -2,100 Descending Atlanta Center
07:22AM 33.3472 -83.7478 279° West 416 479 14,200 -1,620 Descending Atlanta Center
07:23AM 33.3725 -83.8772 283° West 405 466 13,000 -1,140 Descending Atlanta Center
07:24AM 33.4122 -84.0089 290° West 396 456 12,000 -540 Descending Atlanta Center
07:25AM 33.4644 -84.1186 300° West 381 438 12,000  Level Atlanta Center
07:26AM 33.5000 -84.2167 294° West 378 435 12,000  Level Atlanta TRACON
07:27AM 33.5500 -84.3167 301° West 295 339 12,100 -900 Climbing Atlanta TRACON
07:28AM 33.5500 -84.4000 270° West 279 321 10,200 -2,580 Descending Atlanta TRACON
07:29AM 33.5333 -84.4833 257° West 272 313 7,300 -2,940 Descending Atlanta TRACON
07:30AM 33.5333 -84.5667 270° West 252 290 4,700 -2,100 Descending Atlanta TRACON
07:31AM 33.6000 -84.6000 337° Northwest 258 297 3,100 -1,080 Descending Atlanta TRACON
07:32AM 33.6333 -84.5500 51° Northeast 207 238 2,600 -600 Descending Atlanta TRACON
07:33AM 33.6333 -84.5000 90° East 127 146 1,900 -660 Descending Atlanta TRACON
07:34AM 33.6333 -84.4667 90° East 131 151 1,300 -600 Descending Atlanta TRACON